createdAt,value
2018-05-18T00:00:58.422Z,21.13
2018-05-18T00:05:51.719Z,22.87
2018-05-18T00:10:45.041Z,24.50
2018-05-18T00:15:38.365Z,24.30
2018-05-18T00:20:31.687Z,20.23
2018-05-18T00:25:25.779Z,19.17
2018-05-18T00:30:19.832Z,20.30
2018-05-18T00:35:13.130Z,28.93
2018-05-18T00:40:06.444Z,35.90
2018-05-18T00:44:59.747Z,35.37
2018-05-18T00:49:53.815Z,37.20
2018-05-18T00:54:47.880Z,36.20
2018-05-18T00:59:41.176Z,35.63
2018-05-18T01:04:35.272Z,33.83
2018-05-18T01:09:29.340Z,33.83
2018-05-18T01:14:22.644Z,36.13
2018-05-18T01:19:16.776Z,32.97
2018-05-18T01:24:10.076Z,31.93
2018-05-18T01:29:03.384Z,34.30
2018-05-18T01:33:56.691Z,32.87
2018-05-18T01:38:50.017Z,30.83
2018-05-18T01:43:43.326Z,31.93
2018-05-18T01:48:37.446Z,36.93
2018-05-18T01:53:31.486Z,34.83
2018-05-18T01:58:24.783Z,34.07
2018-05-18T02:03:18.877Z,29.27
2018-05-18T02:08:12.178Z,27.93
2018-05-18T02:13:05.479Z,32.90
2018-05-18T02:17:58.778Z,30.13
2018-05-18T02:22:52.106Z,30.27
2018-05-18T02:27:45.417Z,29.17
2018-05-18T02:32:38.713Z,31.60
2018-05-18T02:37:32.027Z,31.70
2018-05-18T02:42:26.110Z,26.87
2018-05-18T02:47:19.418Z,31.10
2018-05-18T02:52:12.720Z,28.33
2018-05-18T02:57:06.014Z,27.90
2018-05-18T03:01:59.390Z,27.57
2018-05-18T03:06:52.641Z,27.90
2018-05-18T03:11:45.933Z,32.23
2018-05-18T03:16:39.238Z,29.97
2018-05-18T03:21:32.518Z,26.80
2018-05-18T03:26:25.815Z,28.47
2018-05-18T03:31:19.869Z,30.13
2018-05-18T03:36:13.187Z,32.50
2018-05-18T03:41:07.264Z,31.57
2018-05-18T03:46:00.928Z,36.10
2018-05-18T03:50:54.219Z,34.40
2018-05-18T03:55:47.527Z,38.10
2018-05-18T04:00:41.574Z,33.83
2018-05-18T04:05:52.502Z,35.03
2018-05-18T04:10:46.603Z,37.83
2018-05-18T04:15:40.663Z,36.27
2018-05-18T04:20:33.977Z,33.60
2018-05-18T04:25:28.011Z,34.60
2018-05-18T04:30:21.379Z,34.33
2018-05-18T04:35:14.619Z,39.33
2018-05-18T04:40:08.679Z,36.30
2018-05-18T04:45:01.992Z,38.73
2018-05-18T04:49:56.060Z,34.27
2018-05-18T04:54:49.366Z,33.90
2018-05-18T04:59:43.428Z,39.37
2018-05-18T05:04:36.734Z,41.43
2018-05-18T05:09:30.798Z,40.97
2018-05-18T05:14:24.115Z,40.20
2018-05-18T05:19:18.175Z,38.30
2018-05-18T05:24:11.473Z,40.23
2018-05-18T05:29:04.758Z,40.47
2018-05-18T05:33:58.058Z,41.30
2018-05-18T05:38:51.345Z,41.40
2018-05-18T05:43:45.412Z,38.80
2018-05-18T05:48:39.480Z,41.63
2018-05-18T05:53:34.016Z,39.47
2018-05-18T05:58:27.379Z,37.93
2018-05-18T06:03:20.607Z,35.27
2018-05-18T06:08:13.905Z,37.13
2018-05-18T06:13:07.238Z,33.37
2018-05-18T06:18:00.535Z,36.47
2018-05-18T06:22:53.823Z,38.93
2018-05-18T06:27:47.133Z,40.07
2018-05-18T06:32:41.193Z,35.70
2018-05-18T06:37:34.508Z,36.07
2018-05-18T06:42:28.567Z,30.50
2018-05-18T06:47:21.867Z,32.40
2018-05-18T06:52:15.163Z,32.53
2018-05-18T06:57:08.527Z,28.17
2018-05-18T07:02:02.586Z,29.67
2018-05-18T07:06:55.888Z,30.50
2018-05-18T07:11:49.217Z,31.10
2018-05-18T07:16:42.488Z,31.97
2018-05-18T07:21:35.799Z,28.87
2018-05-18T07:26:29.362Z,29.77
2018-05-18T07:31:22.679Z,31.20
2018-05-18T07:36:16.077Z,27.13
2018-05-18T07:41:09.384Z,30.20
2018-05-18T07:46:02.696Z,31.13
2018-05-18T07:50:56.003Z,30.50
2018-05-18T07:55:50.920Z,32.97
2018-05-18T08:00:44.249Z,32.17
2018-05-18T08:05:37.565Z,33.93
2018-05-18T08:10:30.867Z,30.60
2018-05-18T08:15:24.175Z,31.70
2018-05-18T08:20:17.473Z,30.67
2018-05-18T08:25:10.787Z,30.77
2018-05-18T08:30:04.111Z,32.37
2018-05-18T08:34:59.051Z,29.20
2018-05-18T08:39:52.384Z,29.83
2018-05-18T08:44:45.704Z,31.17
2018-05-18T08:49:39.019Z,29.57
2018-05-18T08:54:32.355Z,31.97
2018-05-18T08:59:25.668Z,32.10
2018-05-18T09:04:19.027Z,32.13
2018-05-18T09:09:12.394Z,31.53
2018-05-18T09:14:05.704Z,29.20
2018-05-18T09:18:59.777Z,31.53
2018-05-18T09:23:53.082Z,30.07
2018-05-18T09:28:46.670Z,28.80
2018-05-18T09:33:40.774Z,30.23
2018-05-18T09:38:34.083Z,29.27
2018-05-18T09:43:27.390Z,29.47
2018-05-18T09:48:20.700Z,28.77
2018-05-18T09:53:14.029Z,28.90
2018-05-18T09:58:07.354Z,28.10
2018-05-18T10:03:00.663Z,27.33
2018-05-18T10:07:53.991Z,27.70
2018-05-18T10:12:47.288Z,27.10
2018-05-18T10:17:40.595Z,26.97
2018-05-18T10:22:33.913Z,27.57
2018-05-18T10:27:28.004Z,27.77
2018-05-18T10:32:22.082Z,27.37
2018-05-18T10:37:15.382Z,23.63
2018-05-18T10:42:09.470Z,24.60
2018-05-18T10:47:03.520Z,21.13
2018-05-18T10:51:56.852Z,20.67
2018-05-18T10:56:50.925Z,20.10
2018-05-18T11:01:44.215Z,18.37
2018-05-18T11:06:37.519Z,15.70
2018-05-18T11:11:30.823Z,14.80
2018-05-18T11:16:24.129Z,16.33
2018-05-18T11:21:17.434Z,14.67
2018-05-18T11:26:11.954Z,16.27
2018-05-18T11:31:05.171Z,16.83
2018-05-18T11:35:58.493Z,16.70
2018-05-18T11:40:51.794Z,15.90
2018-05-18T11:45:45.088Z,16.77
2018-05-18T11:50:38.388Z,16.90
2018-05-18T11:55:31.692Z,18.13
2018-05-18T12:00:24.987Z,18.33
2018-05-18T12:05:18.283Z,16.60
2018-05-18T12:10:12.936Z,15.77
2018-05-18T12:15:06.248Z,14.00
2018-05-18T12:20:00.297Z,16.40
2018-05-18T12:24:53.597Z,14.90
2018-05-18T12:29:46.908Z,13.73
2018-05-18T12:34:40.269Z,13.77
2018-05-18T12:44:40.834Z,12.57
2018-05-18T12:49:40.338Z,12.63
2018-05-18T12:54:34.383Z,8.73
2018-05-18T12:59:27.788Z,7.83
2018-05-18T13:04:21.009Z,7.53
2018-05-18T13:09:15.199Z,7.50
2018-05-18T13:14:09.286Z,6.47
2018-05-18T13:19:02.577Z,6.47
2018-05-18T13:23:56.852Z,6.97
2018-05-18T13:28:50.156Z,7.80
2018-05-18T13:33:44.211Z,7.67
2018-05-18T13:38:37.518Z,6.60
2018-05-18T13:43:30.840Z,7.00
2018-05-18T13:48:24.227Z,6.60
2018-05-18T13:53:17.495Z,8.53
2018-05-18T13:58:10.789Z,8.90
2018-05-18T14:03:04.102Z,7.60
2018-05-18T14:07:57.405Z,8.60
2018-05-18T14:12:50.695Z,7.60
2018-05-18T14:17:43.997Z,8.83
2018-05-18T14:22:38.103Z,8.60
2018-05-18T14:27:32.191Z,8.87
2018-05-18T14:32:25.483Z,7.10
2018-05-18T14:37:18.783Z,7.63
2018-05-18T14:42:12.089Z,7.30
2018-05-18T14:47:05.410Z,7.57
2018-05-18T14:51:58.711Z,7.37
2018-05-18T14:56:52.009Z,6.77
2018-05-18T15:01:46.077Z,7.27
2018-05-18T15:06:39.344Z,7.23
2018-05-18T15:11:32.649Z,7.13
2018-05-18T15:16:26.813Z,6.50
2018-05-18T15:21:20.821Z,8.20
2018-05-18T15:26:14.130Z,7.20
2018-05-18T15:31:08.184Z,6.57
2018-05-18T15:36:01.482Z,6.80
2018-05-18T15:40:54.783Z,6.57
2018-05-18T15:45:48.186Z,6.40
2018-05-18T15:50:41.497Z,7.07
2018-05-18T15:55:34.793Z,7.10
2018-05-18T16:00:28.938Z,7.53
2018-05-18T16:05:22.296Z,8.17
2018-05-18T16:10:15.616Z,9.23
2018-05-18T16:15:09.280Z,7.73
2018-05-18T16:20:02.589Z,7.17
2018-05-18T16:24:55.905Z,6.40
2018-05-18T16:29:49.976Z,6.43
2018-05-18T16:34:44.036Z,5.87
2018-05-18T16:39:37.334Z,6.20
2018-05-18T16:44:30.624Z,6.43
2018-05-18T16:49:23.959Z,7.00
2018-05-18T16:54:17.272Z,6.83
2018-05-18T16:59:10.584Z,7.00
2018-05-18T17:04:03.865Z,6.23
2018-05-18T17:08:57.175Z,6.03
2018-05-18T17:13:50.487Z,6.47
2018-05-18T17:18:44.587Z,5.43
2018-05-18T17:23:37.899Z,5.70
2018-05-18T17:28:31.195Z,6.90
2018-05-18T17:33:24.514Z,6.50
2018-05-18T17:38:18.565Z,6.47
2018-05-18T17:43:11.851Z,6.53
2018-05-18T17:48:05.170Z,6.97
2018-05-18T17:52:59.233Z,6.80
2018-05-18T17:57:52.533Z,7.53
2018-05-18T18:02:46.587Z,7.47
2018-05-18T18:07:39.889Z,6.63
2018-05-18T18:12:33.187Z,7.40
2018-05-18T18:17:27.239Z,8.40
2018-05-18T18:22:20.627Z,8.00
2018-05-18T18:27:14.639Z,7.07
2018-05-18T18:32:07.942Z,8.47
2018-05-18T18:41:59.467Z,7.63
2018-05-18T18:46:52.782Z,8.30
2018-05-18T18:51:46.848Z,8.70
2018-05-18T18:56:40.144Z,8.93
2018-05-18T19:01:33.523Z,9.17
2018-05-18T19:06:27.587Z,8.53
2018-05-18T19:11:20.925Z,8.70
2018-05-18T19:16:14.226Z,7.63
2018-05-18T19:21:08.356Z,7.90
2018-05-18T19:26:01.665Z,8.43
2018-05-18T19:30:56.206Z,7.97
2018-05-18T19:35:49.507Z,9.23
2018-05-18T19:40:42.805Z,8.47
2018-05-18T19:45:36.158Z,8.63
2018-05-18T19:50:29.457Z,8.10
2018-05-18T19:55:23.515Z,9.53
2018-05-18T20:00:16.828Z,10.37
2018-05-18T20:05:10.927Z,10.20
2018-05-18T20:10:05.005Z,10.13
2018-05-18T20:14:58.311Z,11.93
2018-05-18T20:19:52.465Z,11.60
2018-05-18T20:24:46.498Z,11.53
2018-05-18T20:29:40.590Z,10.60
2018-05-18T20:34:34.667Z,12.00
2018-05-18T20:39:27.994Z,11.20
2018-05-18T20:44:22.072Z,12.17
2018-05-18T20:49:15.421Z,10.63
2018-05-18T20:54:09.502Z,12.10
2018-05-18T20:59:02.826Z,11.63
2018-05-18T21:03:56.132Z,12.40
2018-05-18T21:08:49.430Z,11.87
2018-05-18T21:13:42.735Z,12.70
2018-05-18T21:18:36.803Z,12.63
2018-05-18T21:23:30.691Z,12.83
2018-05-18T21:28:24.002Z,13.30
2018-05-18T21:33:18.074Z,11.90
2018-05-18T21:38:11.377Z,13.07
2018-05-18T21:43:05.451Z,12.23
2018-05-18T21:47:58.753Z,13.07
2018-05-18T21:52:52.816Z,11.23
2018-05-18T21:57:46.122Z,12.57
2018-05-18T22:02:40.227Z,12.10
2018-05-18T22:07:33.523Z,13.03
2018-05-18T22:12:26.867Z,14.20
2018-05-18T22:17:20.934Z,12.50
2018-05-18T22:22:14.296Z,12.13
2018-05-18T22:27:07.623Z,12.20
2018-05-18T22:32:01.708Z,12.20
2018-05-18T22:36:55.783Z,10.97
2018-05-18T22:41:49.083Z,11.80
2018-05-18T22:46:42.399Z,11.87
2018-05-18T22:51:35.733Z,12.37
2018-05-18T22:56:29.787Z,11.50
2018-05-18T23:01:23.079Z,11.50
2018-05-18T23:06:16.402Z,12.10
2018-05-18T23:11:09.703Z,12.23
2018-05-18T23:16:02.972Z,11.70
2018-05-18T23:20:56.266Z,11.97
2018-05-18T23:25:49.641Z,11.97
2018-05-18T23:30:42.909Z,11.50
2018-05-18T23:35:36.223Z,11.37
2018-05-18T23:40:29.553Z,11.57
2018-05-18T23:45:22.855Z,10.90
2018-05-18T23:50:17.030Z,11.30
2018-05-18T23:55:10.323Z,11.50
